createdAt,value
2022-07-25T00:01:46.715Z,43.2
2022-07-25T00:07:05.525Z,42.8
2022-07-25T00:12:24.017Z,42.7
2022-07-25T00:17:42.504Z,42.7
2022-07-25T00:23:00.421Z,42.2
2022-07-25T00:28:18.632Z,42.2
2022-07-25T00:33:37.118Z,42.2
2022-07-25T00:38:55.053Z,42.6
2022-07-25T00:44:12.968Z,44.7
2022-07-25T00:49:31.459Z,43.2
2022-07-25T00:54:49.936Z,42.6
2022-07-25T01:00:08.413Z,42.3
2022-07-25T01:05:27.179Z,42
2022-07-25T01:10:45.666Z,42
2022-07-25T01:16:04.472Z,42.6
2022-07-25T01:21:23.318Z,42
2022-07-25T01:26:41.812Z,41.8
2022-07-25T01:32:00.300Z,42.5
2022-07-25T01:37:19.055Z,42.5
2022-07-25T01:42:37.532Z,41.8
2022-07-25T01:47:56.293Z,41.8
2022-07-25T01:53:14.800Z,42.3
2022-07-25T01:58:32.714Z,42.7
2022-07-25T02:03:51.481Z,42.4
2022-07-25T02:08:54.057Z,42.4
2022-07-25T02:14:12.261Z,42.5
2022-07-25T02:19:30.740Z,43.2
2022-07-25T02:24:48.937Z,42.5
2022-07-25T02:30:07.701Z,41.7
2022-07-25T02:35:26.188Z,43
2022-07-25T02:40:44.674Z,42.8
2022-07-25T02:46:03.157Z,42.3
2022-07-25T02:51:21.716Z,42.3
2022-07-25T02:56:40.209Z,42.8
2022-07-25T03:01:58.965Z,41.8
2022-07-25T03:07:17.722Z,42.4
2022-07-25T03:12:35.930Z,42
2022-07-25T03:17:54.398Z,41.4
2022-07-25T03:23:12.886Z,41.8
2022-07-25T03:28:31.383Z,41.4
2022-07-25T03:33:49.863Z,41.7
2022-07-25T03:39:08.327Z,41.8
2022-07-25T03:44:27.084Z,41.5
2022-07-25T03:49:45.865Z,41.7
2022-07-25T03:55:04.345Z,42.1
2022-07-25T04:00:23.105Z,42
2022-07-25T04:05:48.090Z,41.8
2022-07-25T04:11:06.583Z,41.1
2022-07-25T04:16:28.292Z,42
2022-07-25T04:21:46.478Z,41.1
2022-07-25T04:27:04.705Z,42.1
2022-07-25T04:32:24.830Z,42
2022-07-25T04:37:43.047Z,41.8
2022-07-25T04:43:01.522Z,41.4
2022-07-25T04:48:20.007Z,40.8
2022-07-25T04:53:38.764Z,41.6
2022-07-25T04:59:07.154Z,40.8
2022-07-25T05:04:25.799Z,41.7
2022-07-25T05:09:44.006Z,41.7
2022-07-25T05:15:01.939Z,40.5
2022-07-25T05:20:20.411Z,41.5
2022-07-25T05:25:38.341Z,40.9
2022-07-25T05:30:56.790Z,41.1
2022-07-25T05:36:15.227Z,41.3
2022-07-25T05:41:33.451Z,40.8
2022-07-25T05:46:51.891Z,41.3
2022-07-25T05:52:13.959Z,40.9
2022-07-25T05:57:32.441Z,40.3
2022-07-25T06:02:51.592Z,41.3
2022-07-25T06:08:10.074Z,40.8
2022-07-25T06:13:28.574Z,40.4
2022-07-25T06:18:47.059Z,40.9
2022-07-25T06:24:06.426Z,40.3
2022-07-25T06:29:24.868Z,40.9
2022-07-25T06:34:43.396Z,41.1
2022-07-25T06:40:01.842Z,40.2
2022-07-25T06:45:20.325Z,40.6
2022-07-25T06:50:38.537Z,40.7
2022-07-25T06:55:56.998Z,41.1
2022-07-25T07:01:15.149Z,40.7
2022-07-25T07:06:33.353Z,40.5
2022-07-25T07:11:52.118Z,40
2022-07-25T07:17:10.874Z,40.3
2022-07-25T07:22:29.635Z,41
2022-07-25T07:27:48.282Z,39.7
2022-07-25T07:33:07.038Z,39.6
2022-07-25T07:38:25.565Z,39.7
2022-07-25T07:43:43.764Z,40.1
2022-07-25T07:49:02.796Z,40.1
2022-07-25T07:54:21.582Z,39.7
2022-07-25T07:59:40.320Z,39.1
2022-07-25T08:04:59.048Z,39.9
2022-07-25T08:10:17.801Z,39.6
2022-07-25T08:15:36.083Z,39.5
2022-07-25T08:20:56.964Z,39.6
2022-07-25T08:26:15.449Z,39.9
2022-07-25T08:31:34.055Z,38.5
2022-07-25T08:36:52.075Z,39.1
2022-07-25T08:42:11.951Z,38.3
2022-07-25T08:47:29.905Z,38.8
2022-07-25T08:52:48.350Z,39.2
2022-07-25T08:58:06.839Z,39.4
2022-07-25T09:03:25.490Z,39.1
2022-07-25T09:08:43.507Z,39
2022-07-25T09:14:02.270Z,38.8
2022-07-25T09:19:20.466Z,39.1
2022-07-25T09:24:38.951Z,39.5
2022-07-25T09:29:57.727Z,39.4
2022-07-25T09:35:16.206Z,39.3
2022-07-25T09:40:34.408Z,39.4
2022-07-25T09:45:52.984Z,39.1
2022-07-25T09:51:11.185Z,38.5
2022-07-25T09:56:29.674Z,39.2
2022-07-25T10:01:48.519Z,39.4
2022-07-25T10:07:07.039Z,38.1
2022-07-25T10:12:25.844Z,37.9
2022-07-25T10:17:44.611Z,37.3
2022-07-25T10:23:03.383Z,37.3
2022-07-25T10:28:21.588Z,38.2
2022-07-25T10:33:40.065Z,37.6
2022-07-25T10:38:58.303Z,37.1
2022-07-25T10:44:16.759Z,37.4
2022-07-25T10:49:35.448Z,38.6
2022-07-25T10:54:53.703Z,38.5
2022-07-25T11:00:12.198Z,37.7
2022-07-25T11:05:30.658Z,38.1
2022-07-25T11:10:48.581Z,37.4
2022-07-25T11:16:06.783Z,37.9
2022-07-25T11:21:25.272Z,37.1
2022-07-25T11:26:43.187Z,38.3
2022-07-25T11:32:01.830Z,37.6
2022-07-25T11:37:20.702Z,37.9
2022-07-25T11:42:39.457Z,37
2022-07-25T11:47:58.210Z,36.6
2022-07-25T11:53:16.850Z,36.9
2022-07-25T11:58:35.340Z,37.1
2022-07-25T12:03:53.767Z,36.4
2022-07-25T12:09:20.026Z,36.9
2022-07-25T12:14:38.785Z,37.5
2022-07-25T12:19:57.535Z,37.1
2022-07-25T12:25:15.734Z,36.8
2022-07-25T12:30:34.216Z,38.1
2022-07-25T12:35:52.457Z,37.8
2022-07-25T12:41:18.426Z,38.6
2022-07-25T12:46:36.920Z,38.5
2022-07-25T12:51:40.037Z,38.7
2022-07-25T12:56:58.533Z,38.2
2022-07-25T13:02:17.243Z,38.9
2022-07-25T13:07:35.453Z,38.8
2022-07-25T13:12:54.215Z,39.4
2022-07-25T13:18:12.976Z,39.5
2022-07-25T13:23:31.459Z,38.6
2022-07-25T13:28:49.955Z,39.2
2022-07-25T13:34:08.166Z,39.2
2022-07-25T13:39:26.644Z,39.8
2022-07-25T13:44:45.427Z,40.3
2022-07-25T13:50:03.900Z,40
2022-07-25T13:55:22.390Z,39.4
2022-07-25T14:00:41.204Z,39.5
2022-07-25T14:05:59.708Z,39.5
2022-07-25T14:11:18.192Z,40.1
2022-07-25T14:16:36.604Z,40.6
2022-07-25T14:21:54.818Z,39.1
2022-07-25T14:27:12.742Z,38.3
2022-07-25T14:32:17.397Z,37.7
2022-07-25T14:37:35.867Z,37.2
2022-07-25T14:42:54.352Z,37.4
2022-07-25T14:48:12.825Z,37.1
2022-07-25T14:53:31.598Z,37.9
2022-07-25T14:58:49.517Z,37.4
2022-07-25T15:04:08.004Z,37.4
2022-07-25T15:09:16.679Z,37.4
2022-07-25T15:14:35.125Z,37.5
2022-07-25T15:19:53.594Z,37.1
2022-07-25T15:26:11.671Z,37.2
2022-07-25T15:31:30.309Z,37.9
2022-07-25T15:36:48.523Z,37.3
2022-07-25T15:42:06.992Z,36.7
2022-07-25T15:47:25.211Z,37.4
2022-07-25T15:52:43.696Z,37
2022-07-25T15:58:02.153Z,36.2
2022-07-25T16:03:20.624Z,37
2022-07-25T16:08:39.398Z,36.5
2022-07-25T16:13:58.349Z,36.5
2022-07-25T16:19:17.116Z,37.1
2022-07-25T16:24:35.880Z,36.1
2022-07-25T16:29:54.634Z,37
2022-07-25T16:35:13.142Z,36.5
2022-07-25T16:40:34.778Z,37.2
2022-07-25T16:45:37.872Z,36.6
2022-07-25T16:50:56.355Z,36.6
2022-07-25T16:56:14.836Z,37
2022-07-25T17:01:33.294Z,36.7
2022-07-25T17:06:51.557Z,36.3
2022-07-25T17:12:10.062Z,36.6
2022-07-25T17:17:28.260Z,36.3
2022-07-25T17:22:47.034Z,35.9
2022-07-25T17:28:05.521Z,36.5
2022-07-25T17:33:24.284Z,36.1
2022-07-25T17:38:42.772Z,37.1
2022-07-25T17:44:00.987Z,38
2022-07-25T17:49:19.421Z,37.4
2022-07-25T17:54:37.739Z,37.7
2022-07-25T17:59:55.673Z,38.8
2022-07-25T18:05:14.429Z,39.6
2022-07-25T18:10:17.288Z,40.1
2022-07-25T18:15:36.269Z,39.3
2022-07-25T18:20:54.722Z,39.5
2022-07-25T18:26:13.189Z,39.9
2022-07-25T18:31:31.879Z,39.2
2022-07-25T18:36:50.087Z,38.4
2022-07-25T18:42:08.516Z,39.3
2022-07-25T18:47:32.665Z,39
2022-07-25T18:52:51.401Z,39.7
2022-07-25T18:58:10.162Z,39.3
2022-07-25T19:03:28.926Z,39
2022-07-25T19:08:47.126Z,39.6
2022-07-25T19:14:06.699Z,39.5
2022-07-25T19:19:25.063Z,39.6
2022-07-25T19:24:43.531Z,39.6
2022-07-25T19:30:02.018Z,39.4
2022-07-25T19:35:26.780Z,39.5
2022-07-25T19:40:45.542Z,39.8
2022-07-25T19:46:04.528Z,40.3
2022-07-25T19:51:23.148Z,40.1
2022-07-25T19:56:41.913Z,39.2
2022-07-25T20:02:00.871Z,39.4
2022-07-25T20:07:19.362Z,40.6
2022-07-25T20:12:38.127Z,40.8
2022-07-25T20:17:56.604Z,40.3
2022-07-25T20:23:15.095Z,40.2
2022-07-25T20:28:33.592Z,41.2
2022-07-25T20:33:51.788Z,41.1
2022-07-25T20:39:11.937Z,41.2
2022-07-25T20:44:30.995Z,41.2
2022-07-25T20:49:49.481Z,41.8
2022-07-25T20:55:07.835Z,42
2022-07-25T21:00:26.599Z,41.2
2022-07-25T21:05:45.110Z,41.5
2022-07-25T21:11:03.563Z,41.2
2022-07-25T21:16:22.018Z,40.9
2022-07-25T21:21:40.769Z,40.6
2022-07-25T21:26:59.228Z,41
2022-07-25T21:32:18.124Z,42.1
2022-07-25T21:37:36.376Z,41.3
2022-07-25T21:42:55.097Z,41.9
2022-07-25T21:48:14.324Z,41.8
2022-07-25T21:53:32.784Z,41.7
2022-07-25T21:58:51.411Z,42.9
2022-07-25T22:04:10.572Z,42.5
2022-07-25T22:09:29.085Z,43.5
2022-07-25T22:14:47.844Z,43.8
2022-07-25T22:20:06.067Z,43.4
2022-07-25T22:25:24.536Z,44.4
2022-07-25T22:30:43.029Z,44.2
2022-07-25T22:36:01.504Z,44.2
2022-07-25T22:41:19.992Z,44.9
2022-07-25T22:46:38.473Z,44.1
2022-07-25T22:51:57.141Z,44
2022-07-25T22:57:15.619Z,43.9
2022-07-25T23:02:33.889Z,43.8
2022-07-25T23:07:52.441Z,44.3
2022-07-25T23:13:10.645Z,43.4
2022-07-25T23:18:28.847Z,43.8
2022-07-25T23:23:47.616Z,43.8
2022-07-25T23:29:07.087Z,44.1
2022-07-25T23:34:25.655Z,42.8
2022-07-25T23:39:43.867Z,43.9
2022-07-25T23:45:03.877Z,43
2022-07-25T23:50:25.316Z,42.8
2022-07-25T23:55:43.779Z,44.3
